createdAt,value
2022-10-03T00:01:24.557Z,0.60
2022-10-03T00:03:57.803Z,0.80
2022-10-03T00:06:43.065Z,0.60
2022-10-03T00:09:19.412Z,0.90
2022-10-03T00:11:48.499Z,0.80
2022-10-03T00:14:14.759Z,0.90
2022-10-03T00:16:46.982Z,0.70
2022-10-03T00:19:39.979Z,0.60
2022-10-03T00:22:18.403Z,1.60
2022-10-03T00:24:47.755Z,0.82
2022-10-03T00:27:14.022Z,0.95
2022-10-03T00:29:46.397Z,1.23
2022-10-03T00:32:41.165Z,0.75
2022-10-03T00:35:26.129Z,1.23
2022-10-03T00:38:01.273Z,0.65
2022-10-03T00:40:36.835Z,0.80
2022-10-03T00:43:12.024Z,0.90
2022-10-03T00:45:56.469Z,0.68
2022-10-03T00:48:31.996Z,1.02
2022-10-03T00:51:10.633Z,0.40
2022-10-03T00:53:57.155Z,0.65
2022-10-03T00:56:53.086Z,0.70
2022-10-03T00:59:22.206Z,0.68
2022-10-03T01:01:49.576Z,0.55
2022-10-03T01:04:43.090Z,0.75
2022-10-03T01:07:10.333Z,0.47
2022-10-03T01:09:48.859Z,0.47
2022-10-03T01:12:37.437Z,0.40
2022-10-03T01:15:10.578Z,0.38
2022-10-03T01:17:48.441Z,0.65
2022-10-03T01:20:14.715Z,0.80
2022-10-03T01:22:41.081Z,0.60
2022-10-03T01:25:16.579Z,0.60
2022-10-03T01:28:02.850Z,0.60
2022-10-03T01:30:35.572Z,0.85
2022-10-03T01:33:11.113Z,1.02
2022-10-03T01:35:40.598Z,0.60
2022-10-03T01:38:33.203Z,0.60
2022-10-03T01:41:04.066Z,0.50
2022-10-03T01:43:45.873Z,0.90
2022-10-03T01:46:32.346Z,1.35
2022-10-03T01:49:01.414Z,0.50
2022-10-03T01:51:57.157Z,1.73
2022-10-03T01:54:42.116Z,0.90
2022-10-03T01:57:26.382Z,0.68
2022-10-03T01:59:55.680Z,0.73
2022-10-03T02:02:43.555Z,0.80
2022-10-03T02:05:12.928Z,1.10
2022-10-03T02:07:58.332Z,0.80
2022-10-03T02:10:43.468Z,0.98
2022-10-03T02:13:23.992Z,1.08
2022-10-03T02:16:09.859Z,0.70
2022-10-03T02:18:44.931Z,0.77
2022-10-03T02:21:18.961Z,0.90
2022-10-03T02:23:46.119Z,0.95
2022-10-03T02:26:32.422Z,0.82
2022-10-03T02:29:04.803Z,0.70
2022-10-03T02:32:00.022Z,0.90
2022-10-03T02:34:48.860Z,1.13
2022-10-03T02:37:15.188Z,0.90
2022-10-03T02:40:00.519Z,0.98
2022-10-03T02:42:33.539Z,1.07
2022-10-03T02:45:00.933Z,0.70
2022-10-03T02:47:42.532Z,0.80
2022-10-03T02:50:21.830Z,0.85
2022-10-03T02:53:06.724Z,0.80
2022-10-03T02:55:43.709Z,0.95
2022-10-03T02:58:11.176Z,0.88
2022-10-03T03:00:49.607Z,0.52
2022-10-03T03:03:34.931Z,0.77
2022-10-03T03:06:17.403Z,0.53
2022-10-03T03:09:02.847Z,0.80
2022-10-03T03:11:35.380Z,0.85
2022-10-03T03:14:01.645Z,1.08
2022-10-03T03:16:33.098Z,0.70
2022-10-03T03:19:07.802Z,0.95
2022-10-03T03:21:52.780Z,0.52
2022-10-03T03:24:34.116Z,0.70
2022-10-03T03:27:18.699Z,1.05
2022-10-03T03:29:56.839Z,1.00
2022-10-03T03:32:41.802Z,0.80
2022-10-03T03:35:14.323Z,0.77
2022-10-03T03:37:48.653Z,0.88
2022-10-03T03:40:44.399Z,0.90
2022-10-03T03:43:26.895Z,0.90
2022-10-03T03:46:06.491Z,0.88
2022-10-03T03:48:39.603Z,0.90
2022-10-03T03:51:15.004Z,0.90
2022-10-03T03:53:44.042Z,0.90
2022-10-03T03:56:22.269Z,0.73
2022-10-03T03:58:56.587Z,0.70
2022-10-03T04:01:29.128Z,0.88
2022-10-03T04:04:07.753Z,1.02
2022-10-03T04:06:54.264Z,0.73
2022-10-03T04:09:39.123Z,0.85
2022-10-03T04:12:21.776Z,1.13
2022-10-03T04:14:50.019Z,0.90
2022-10-03T04:17:45.368Z,0.85
2022-10-03T04:20:32.577Z,0.60
2022-10-03T04:23:08.120Z,0.80
2022-10-03T04:25:34.459Z,0.63
2022-10-03T04:28:10.823Z,0.70
2022-10-03T04:30:55.973Z,1.45
2022-10-03T04:33:22.227Z,0.90
2022-10-03T04:36:14.843Z,0.75
2022-10-03T04:38:59.748Z,0.77
2022-10-03T04:41:32.020Z,0.98
2022-10-03T04:44:16.745Z,0.85
2022-10-03T04:46:56.324Z,0.90
2022-10-03T04:49:52.071Z,0.90
2022-10-03T04:52:22.052Z,1.10
2022-10-03T04:54:54.220Z,0.90
2022-10-03T04:57:49.860Z,0.82
2022-10-03T05:00:24.219Z,1.00
2022-10-03T05:03:05.898Z,1.08
2022-10-03T05:05:51.232Z,0.85
2022-10-03T05:08:26.784Z,0.80
2022-10-03T05:11:12.297Z,0.90
2022-10-03T05:13:41.598Z,1.02
2022-10-03T05:16:15.183Z,1.48
2022-10-03T05:18:47.660Z,0.98
2022-10-03T05:21:14.388Z,1.00
2022-10-03T05:23:41.111Z,0.90
2022-10-03T05:26:44.449Z,1.00
2022-10-03T05:29:25.167Z,0.98
2022-10-03T05:32:00.744Z,0.90
2022-10-03T05:34:37.249Z,0.90
2022-10-03T05:37:19.577Z,1.40
2022-10-03T05:39:51.844Z,0.98
2022-10-03T05:42:23.349Z,0.70
2022-10-03T05:44:53.128Z,1.42
2022-10-03T05:47:44.712Z,1.10
2022-10-03T05:50:14.287Z,1.02
2022-10-03T05:52:55.617Z,0.88
2022-10-03T05:55:40.586Z,0.98
2022-10-03T05:58:09.736Z,0.80
2022-10-03T06:00:36.088Z,1.08
2022-10-03T06:03:05.701Z,2.17
2022-10-03T06:05:41.370Z,1.13
2022-10-03T06:08:25.951Z,1.30
2022-10-03T06:11:07.306Z,1.02
2022-10-03T06:14:06.007Z,1.00
2022-10-03T06:16:40.230Z,1.20
2022-10-03T06:19:14.043Z,1.38
2022-10-03T06:21:59.267Z,0.95
2022-10-03T06:24:25.550Z,0.60
2022-10-03T06:27:10.193Z,1.00
2022-10-03T06:29:36.558Z,0.55
2022-10-03T06:32:05.832Z,1.10
2022-10-03T06:34:52.003Z,1.13
2022-10-03T06:37:48.228Z,0.80
2022-10-03T06:40:33.433Z,0.88
2022-10-03T06:43:08.422Z,1.50
2022-10-03T06:45:53.510Z,0.85
2022-10-03T06:48:28.321Z,1.00
2022-10-03T06:51:13.996Z,1.02
2022-10-03T06:53:40.469Z,0.70
2022-10-03T06:56:12.678Z,1.40
2022-10-03T06:58:58.207Z,0.90
2022-10-03T07:01:35.716Z,1.40
2022-10-03T07:04:02.049Z,1.08
2022-10-03T07:06:48.820Z,1.52
2022-10-03T07:09:18.074Z,1.50
2022-10-03T07:11:56.431Z,1.60
2022-10-03T07:14:22.717Z,2.13
2022-10-03T07:16:56.193Z,1.50
2022-10-03T07:19:22.773Z,1.40
2022-10-03T07:21:49.043Z,0.80
2022-10-03T07:24:34.223Z,1.20
2022-10-03T07:27:21.142Z,1.23
2022-10-03T07:29:53.464Z,1.30
2022-10-03T07:32:27.409Z,1.52
2022-10-03T07:35:12.356Z,1.27
2022-10-03T07:38:10.339Z,2.17
2022-10-03T07:40:45.940Z,1.90
2022-10-03T07:43:15.633Z,1.27
2022-10-03T07:45:46.025Z,1.17
2022-10-03T07:48:18.567Z,1.50
2022-10-03T07:50:44.869Z,1.48
2022-10-03T07:53:17.344Z,1.88
2022-10-03T07:55:50.327Z,1.10
2022-10-03T07:58:26.288Z,1.60
2022-10-03T08:00:55.316Z,1.67
2022-10-03T08:03:46.534Z,1.45
2022-10-03T08:06:18.204Z,1.25
2022-10-03T08:08:53.933Z,1.80
2022-10-03T08:13:57.939Z,1.52
2022-10-03T08:16:24.315Z,1.88
2022-10-03T08:18:50.651Z,2.85
2022-10-03T08:21:16.941Z,2.40
2022-10-03T08:23:52.714Z,1.90
2022-10-03T08:28:58.118Z,2.50
2022-10-03T08:31:47.830Z,2.63
2022-10-03T08:34:14.249Z,2.15
2022-10-03T08:36:43.399Z,2.15
2022-10-03T08:39:11.302Z,2.50
2022-10-03T08:41:46.708Z,2.30
2022-10-03T08:44:15.853Z,1.95
2022-10-03T08:46:46.720Z,2.40
2022-10-03T08:49:28.298Z,2.80
2022-10-03T08:51:59.185Z,2.38
2022-10-03T08:54:25.547Z,1.60
2022-10-03T08:57:10.462Z,1.73
2022-10-03T08:59:55.403Z,1.30
2022-10-03T09:02:21.778Z,1.38
2022-10-03T09:05:00.434Z,1.30
2022-10-03T09:07:41.272Z,1.52
2022-10-03T09:10:10.536Z,1.73
2022-10-03T09:12:37.354Z,1.70
2022-10-03T09:15:03.783Z,1.23
2022-10-03T09:17:49.304Z,1.52
2022-10-03T09:20:23.832Z,1.42
2022-10-03T09:23:13.388Z,1.50
2022-10-03T09:25:45.812Z,1.20
2022-10-03T09:28:12.303Z,1.50
2022-10-03T09:30:44.402Z,1.45
2022-10-03T09:33:29.359Z,1.50
2022-10-03T09:36:17.126Z,1.48
2022-10-03T09:39:02.257Z,1.40
2022-10-03T09:41:47.079Z,1.85
2022-10-03T09:44:28.471Z,1.58
2022-10-03T09:47:19.544Z,1.67
2022-10-03T09:49:54.831Z,2.55
2022-10-03T09:52:22.806Z,1.40
2022-10-03T09:55:08.972Z,1.83
2022-10-03T10:00:19.437Z,1.60
2022-10-03T10:02:57.749Z,1.60
2022-10-03T10:05:37.384Z,2.40
2022-10-03T10:08:20.149Z,1.45
2022-10-03T10:11:05.204Z,1.50
2022-10-03T10:14:07.127Z,2.20
2022-10-03T10:16:36.857Z,1.40
2022-10-03T10:19:12.486Z,1.52
2022-10-03T10:21:44.775Z,2.00
2022-10-03T10:24:11.126Z,1.40
2022-10-03T10:27:09.937Z,1.70
2022-10-03T10:29:45.654Z,1.98
2022-10-03T10:37:08.024Z,1.75
2022-10-03T10:39:49.356Z,2.10
2022-10-03T10:42:44.057Z,1.55
2022-10-03T10:45:29.877Z,1.90
2022-10-03T10:48:16.903Z,1.60
2022-10-03T10:50:50.645Z,2.40
2022-10-03T10:53:37.933Z,1.30
2022-10-03T10:56:18.784Z,1.75
2022-10-03T10:59:03.912Z,1.83
2022-10-03T11:01:35.139Z,1.75
2022-10-03T11:04:01.469Z,1.65
2022-10-03T11:06:42.354Z,1.58
2022-10-03T11:09:28.405Z,1.15
2022-10-03T11:12:14.083Z,1.52
2022-10-03T11:14:59.590Z,2.58
2022-10-03T11:17:39.040Z,1.45
2022-10-03T11:20:23.835Z,1.65
2022-10-03T11:23:04.687Z,1.30
2022-10-03T11:25:34.482Z,1.92
2022-10-03T11:28:07.024Z,1.20
2022-10-03T11:30:52.477Z,1.55
2022-10-03T11:33:35.521Z,1.63
2022-10-03T11:36:01.848Z,1.80
2022-10-03T11:38:35.731Z,2.50
2022-10-03T11:41:20.690Z,2.10
2022-10-03T11:44:01.487Z,1.67
2022-10-03T11:46:43.778Z,1.83
2022-10-03T11:49:28.848Z,2.05
2022-10-03T11:52:13.814Z,1.45
2022-10-03T11:54:41.689Z,2.03
2022-10-03T11:57:23.211Z,2.53
2022-10-03T11:59:55.166Z,1.63
2022-10-03T12:02:40.559Z,2.33
2022-10-03T12:05:13.086Z,2.00
2022-10-03T12:08:02.674Z,2.40
2022-10-03T12:10:31.823Z,1.50
2022-10-03T12:12:59.472Z,1.73
2022-10-03T12:15:25.835Z,2.08
2022-10-03T12:18:15.169Z,1.90
2022-10-03T12:20:49.973Z,1.83
2022-10-03T12:23:24.363Z,2.43
2022-10-03T12:25:51.599Z,1.98
2022-10-03T12:28:24.886Z,2.40
2022-10-03T12:31:01.351Z,2.03
2022-10-03T12:33:28.334Z,2.15
2022-10-03T12:36:03.197Z,2.97
2022-10-03T12:38:34.939Z,2.33
2022-10-03T12:41:18.103Z,1.90
2022-10-03T12:43:57.047Z,2.17
2022-10-03T12:46:35.058Z,1.98
2022-10-03T12:49:20.639Z,1.80
2022-10-03T12:51:46.934Z,2.17
2022-10-03T12:54:16.318Z,1.65
2022-10-03T12:56:48.871Z,1.95
2022-10-03T12:59:38.466Z,2.03
2022-10-03T13:02:08.407Z,2.08
2022-10-03T13:04:40.909Z,2.22
2022-10-03T13:07:22.281Z,1.95
2022-10-03T13:10:11.146Z,1.77
2022-10-03T13:12:53.156Z,2.20
2022-10-03T13:15:19.443Z,2.00
2022-10-03T13:17:53.923Z,1.63
2022-10-03T13:20:25.727Z,2.10
2022-10-03T13:23:13.255Z,1.83
2022-10-03T13:25:39.598Z,1.77
2022-10-03T13:28:41.549Z,1.83
2022-10-03T13:31:15.184Z,1.63
2022-10-03T13:33:44.562Z,1.60
2022-10-03T13:36:29.358Z,1.27
2022-10-03T13:39:11.776Z,1.92
2022-10-03T13:41:59.610Z,1.80
2022-10-03T13:44:35.932Z,1.98
2022-10-03T13:47:15.702Z,1.90
2022-10-03T13:49:55.560Z,1.67
2022-10-03T13:52:27.454Z,1.30
2022-10-03T13:55:08.934Z,1.80
2022-10-03T13:57:44.865Z,2.00
2022-10-03T14:00:13.375Z,1.20
2022-10-03T14:02:49.390Z,1.60
2022-10-03T14:05:18.965Z,2.13
2022-10-03T14:07:45.527Z,1.20
2022-10-03T14:10:18.036Z,1.52
2022-10-03T14:12:55.882Z,1.92
2022-10-03T14:15:41.619Z,1.98
2022-10-03T14:18:07.921Z,1.87
2022-10-03T14:20:44.352Z,1.30
2022-10-03T14:23:19.824Z,1.45
2022-10-03T14:25:52.837Z,1.50
2022-10-03T14:28:28.354Z,1.60
2022-10-03T14:31:07.248Z,1.40
2022-10-03T14:33:34.082Z,1.95
2022-10-03T14:36:00.431Z,2.17
2022-10-03T14:38:49.485Z,2.15
2022-10-03T14:41:20.783Z,1.58
2022-10-03T14:43:55.567Z,1.88
2022-10-03T14:46:24.526Z,0.90
2022-10-03T14:48:53.069Z,1.45
2022-10-03T14:51:21.402Z,1.20
2022-10-03T14:53:52.500Z,1.65
2022-10-03T14:56:19.799Z,1.67
2022-10-03T14:58:48.462Z,1.85
2022-10-03T15:01:20.036Z,1.73
2022-10-03T15:03:55.481Z,1.65
2022-10-03T15:06:40.627Z,1.55
2022-10-03T15:09:11.758Z,1.30
2022-10-03T15:11:45.452Z,1.75
2022-10-03T15:14:12.103Z,1.77
2022-10-03T15:16:40.251Z,1.80
2022-10-03T15:19:30.231Z,1.45
2022-10-03T15:22:00.228Z,2.42
2022-10-03T15:24:30.177Z,1.90
2022-10-03T15:27:03.279Z,0.88
2022-10-03T15:29:30.620Z,1.60
2022-10-03T15:31:58.005Z,1.15
2022-10-03T15:34:28.170Z,1.50
2022-10-03T15:36:56.838Z,1.60
2022-10-03T15:39:25.949Z,1.38
2022-10-03T15:42:01.213Z,1.95
2022-10-03T15:44:33.775Z,1.40
2022-10-03T15:47:05.015Z,2.03
2022-10-03T15:49:31.389Z,1.25
2022-10-03T15:52:06.976Z,1.30
2022-10-03T15:54:38.542Z,1.40
2022-10-03T15:57:05.792Z,1.38
2022-10-03T15:59:36.997Z,2.00
2022-10-03T16:02:08.717Z,2.95
2022-10-03T16:04:38.256Z,1.92
2022-10-03T16:07:09.986Z,1.00
2022-10-03T16:09:46.831Z,1.30
2022-10-03T16:12:37.761Z,1.13
2022-10-03T16:15:13.905Z,1.98
2022-10-03T16:17:42.616Z,1.70
2022-10-03T16:20:22.299Z,2.85
2022-10-03T16:22:50.771Z,1.80
2022-10-03T16:25:17.106Z,1.85
2022-10-03T16:27:52.847Z,1.60
2022-10-03T16:32:50.175Z,0.80
2022-10-03T16:35:22.588Z,1.60
2022-10-03T16:37:50.246Z,1.77
2022-10-03T16:40:21.472Z,1.30
2022-10-03T16:42:50.640Z,1.75
2022-10-03T16:45:24.075Z,1.30
2022-10-03T16:48:11.487Z,1.40
2022-10-03T16:50:42.200Z,1.40
2022-10-03T16:53:11.081Z,1.35
2022-10-03T16:55:56.591Z,2.03
2022-10-03T16:58:29.200Z,1.85
2022-10-03T17:01:26.837Z,1.52
2022-10-03T17:03:59.938Z,1.95
2022-10-03T17:06:29.060Z,5.47
2022-10-03T17:08:58.073Z,4.18
2022-10-03T17:11:27.488Z,4.20
2022-10-03T17:13:55.396Z,4.45
2022-10-03T17:16:34.023Z,4.13
2022-10-03T17:19:09.845Z,3.70
2022-10-03T17:24:16.712Z,3.75
2022-10-03T17:26:44.876Z,2.75
2022-10-03T17:29:30.752Z,3.50
2022-10-03T17:32:00.410Z,2.65
2022-10-03T17:34:34.593Z,2.60
2022-10-03T17:37:03.788Z,2.13
2022-10-03T17:39:32.866Z,2.40
2022-10-03T17:42:02.968Z,1.90
2022-10-03T17:44:47.550Z,2.35
2022-10-03T17:47:20.339Z,1.92
2022-10-03T17:49:59.004Z,1.73
2022-10-03T17:52:26.368Z,2.00
2022-10-03T17:54:56.974Z,1.75
2022-10-03T17:57:26.878Z,2.25
2022-10-03T17:59:59.467Z,2.42
2022-10-03T18:02:31.498Z,2.78
2022-10-03T18:05:18.172Z,1.90
2022-10-03T18:07:44.965Z,2.72
2022-10-03T18:10:29.241Z,2.00
2022-10-03T18:12:57.387Z,2.08
2022-10-03T18:15:43.531Z,1.58
2022-10-03T18:23:05.089Z,1.83
2022-10-03T18:26:21.193Z,2.67
2022-10-03T18:28:47.860Z,2.17
2022-10-03T18:31:22.019Z,2.47
2022-10-03T18:33:51.532Z,1.63
2022-10-03T18:36:23.828Z,1.98
2022-10-03T18:38:52.512Z,1.60
2022-10-03T18:41:19.355Z,1.58
2022-10-03T18:43:58.850Z,1.77
2022-10-03T18:46:31.080Z,1.50
2022-10-03T18:51:58.213Z,2.03
2022-10-03T18:54:30.341Z,1.77
2022-10-03T18:57:16.898Z,1.63
2022-10-03T18:59:52.086Z,1.42
2022-10-03T19:02:21.457Z,2.10
2022-10-03T19:04:53.293Z,2.00
2022-10-03T19:07:24.300Z,2.30
2022-10-03T19:10:11.660Z,1.95
2022-10-03T19:12:41.178Z,1.92
2022-10-03T19:15:22.557Z,2.60
2022-10-03T19:18:07.889Z,2.85
2022-10-03T19:20:38.264Z,2.50
2022-10-03T19:23:04.599Z,2.47
2022-10-03T19:25:31.852Z,2.22
2022-10-03T19:28:00.171Z,2.72
2022-10-03T19:30:27.471Z,2.38
2022-10-03T19:32:57.093Z,3.08
2022-10-03T19:35:24.523Z,3.70
2022-10-03T19:37:56.047Z,2.58
2022-10-03T19:40:42.348Z,2.38
2022-10-03T19:43:20.893Z,2.85
2022-10-03T19:45:53.114Z,2.83
2022-10-03T19:48:21.893Z,2.90
2022-10-03T19:50:48.336Z,2.55
2022-10-03T19:53:15.948Z,2.65
2022-10-03T19:55:43.056Z,2.13
2022-10-03T19:58:15.337Z,2.00
2022-10-03T20:00:50.526Z,3.17
2022-10-03T20:03:21.602Z,2.55
2022-10-03T20:05:54.686Z,2.58
2022-10-03T20:08:24.207Z,2.63
2022-10-03T20:11:09.444Z,2.22
2022-10-03T20:13:41.215Z,2.63
2022-10-03T20:16:13.069Z,2.25
2022-10-03T20:18:39.465Z,2.85
2022-10-03T20:21:09.607Z,3.00
2022-10-03T20:23:39.719Z,2.97
2022-10-03T20:26:11.679Z,2.42
2022-10-03T20:28:46.148Z,2.47
2022-10-03T20:31:22.485Z,3.83
2022-10-03T20:33:50.059Z,3.20
2022-10-03T20:36:27.251Z,2.83
2022-10-03T20:38:56.534Z,3.28
2022-10-03T20:41:38.134Z,2.67
2022-10-03T20:44:43.296Z,3.10
2022-10-03T20:47:26.628Z,3.20
2022-10-03T20:49:58.852Z,2.72
2022-10-03T20:52:25.761Z,3.78
2022-10-03T20:54:59.201Z,3.08
2022-10-03T20:57:28.089Z,2.10
2022-10-03T20:59:54.380Z,2.90
2022-10-03T21:02:23.480Z,3.33
2022-10-03T21:04:58.654Z,2.35
2022-10-03T21:07:29.600Z,3.30
2022-10-03T21:10:12.377Z,3.38
2022-10-03T21:12:45.094Z,2.08
2022-10-03T21:15:14.281Z,2.65
2022-10-03T21:17:42.316Z,2.38
2022-10-03T21:20:13.578Z,2.42
2022-10-03T21:22:41.277Z,2.53
2022-10-03T21:25:20.066Z,2.67
2022-10-03T21:27:51.810Z,2.60
2022-10-03T21:30:19.694Z,2.22
2022-10-03T21:32:45.972Z,2.47
2022-10-03T21:35:27.448Z,1.98
2022-10-03T21:38:12.208Z,2.45
2022-10-03T21:40:38.514Z,3.60
2022-10-03T21:43:17.334Z,3.08
2022-10-03T21:45:51.623Z,2.83
2022-10-03T21:48:24.090Z,2.40
2022-10-03T21:50:54.707Z,2.40
2022-10-03T21:53:26.807Z,2.78
2022-10-03T21:55:58.960Z,2.78
2022-10-03T21:58:34.636Z,2.50
2022-10-03T22:05:56.404Z,1.83
2022-10-03T22:08:24.715Z,3.75
2022-10-03T22:11:11.252Z,2.60
2022-10-03T22:13:38.800Z,2.60
2022-10-03T22:16:08.302Z,3.03
2022-10-03T22:18:41.991Z,3.00
2022-10-03T22:21:08.288Z,3.35
2022-10-03T22:23:49.584Z,2.80
2022-10-03T22:26:30.947Z,3.20
2022-10-03T22:28:57.729Z,2.83
2022-10-03T22:31:29.854Z,2.78
2022-10-03T22:34:06.066Z,3.78
2022-10-03T22:36:35.092Z,3.03
2022-10-03T22:39:01.463Z,2.50
2022-10-03T22:41:29.372Z,2.28
2022-10-03T22:43:57.095Z,2.70
2022-10-03T22:46:26.227Z,2.40
2022-10-03T22:48:59.909Z,3.22
2022-10-03T22:51:26.696Z,2.70
2022-10-03T22:53:57.026Z,2.55
2022-10-03T22:56:29.375Z,3.05
2022-10-03T22:58:55.791Z,2.70
2022-10-03T23:01:22.193Z,2.78
2022-10-03T23:03:48.573Z,3.13
2022-10-03T23:06:36.499Z,3.35
2022-10-03T23:09:02.768Z,3.13
2022-10-03T23:11:30.271Z,3.50
2022-10-03T23:13:57.835Z,2.20
2022-10-03T23:16:30.194Z,2.95
2022-10-03T23:19:05.402Z,2.72
2022-10-03T23:21:32.140Z,3.03
2022-10-03T23:24:04.754Z,2.88
2022-10-03T23:26:49.866Z,3.10
2022-10-03T23:29:16.944Z,2.35
2022-10-03T23:31:50.659Z,2.42
2022-10-03T23:34:37.379Z,2.30
2022-10-03T23:37:16.065Z,2.63
2022-10-03T23:39:43.864Z,1.90
2022-10-03T23:42:30.395Z,2.60
2022-10-03T23:45:19.808Z,2.25
2022-10-03T23:47:49.155Z,2.70
2022-10-03T23:50:18.699Z,2.42
2022-10-03T23:52:51.225Z,1.83
2022-10-03T23:55:22.319Z,2.78
2022-10-03T23:57:48.759Z,2.15
